Weather at San Carlos Airport

Public forecast

Using degrees Celsius for public forecast. Weather courtesy of forecast.io.

Closest aviation weather report (METAR) to San Carlos Airport

Closest report is Ignacio Agramonte International Airport, 26.7 nm (49.4 km) NE. Retrieved 2021/06/15 18:50 UTC (42 minutes ago):

MUCM 151850Z 06005KT 020V110 9000 SCT020 32/23 Q1017

Closest aviation forecast (TAF) to San Carlos Airport

Closest forecast is Ignacio Agramonte International Airport, 26.7 nm (49.4 km) NE. Retrieved 2021/06/15 18:05 UTC (1 hour ago):

TAF MUCM 151700Z 1518/1618 VRB05KT 9000 SCT020 TEMPO 1518/1524 VRB10KT 3000 TSRA SCT018CB BKN020